Startpagina
METAR-TAF:

METAR-TAF

Vliegvelden :

Hay River, Northwest Territories, Canada

breedte: 60-50N, lengte: 115-47W, hoogte: 164 m

Actueel weer

Dit bericht is 29 minuten geleden gemaakt, om 10:00 UTC
Weinig wind
Temperatuur -23°C
Vochtigheid 76%
Druk 1018 hPa
Zicht: 24.1 km
Weinig wolken op 6000 ft
lichte sneeuw

METAR: CYHY 051000Z 00000KT 15SM -SN FEW060 M23/M26 A3005 RMK SC1 SLP197

Tijdstip: 04:29 (10:29 UTC)

Verwachting

Dit bericht is 4 uur en het 50 minuten geleden gemaakt, om 05:39 UTC
Verwachting geldig van 05 om 06 UTC tot 05 om 18 UTC
Wind 3 kt uit variabele richting
Zicht: 10 km
Gebroken wolken op 6000 ft
Van 05 om 0900 UTC
Wind 3 kt uit variabele richting
Zicht: 10 km
Verspreide wolken op 6000 ft
Wijzigt naar
van 05 om 15 UTC tot 05 om 17 UTC
Wind 8 kt uit het oostzuidoosten

TAF: CYHY 050539Z 0506/0518 VRB03KT P6SM BKN060 FM050900 VRB03KT P6SM SCT060 BECMG 0515/0517 12008KT RMK NXT FCST BY 051200Z

Waarnemingen en weersverwachtingen van meer dan 4000 vliegvelden (METAR en TAF).

De beschikbare stations zijn de gele en rode punten op de kaart.

Ga met uw muis naar het station om de naam te zien.

Klik dan om waarnemingen en weersverwachtingen te zien.

kaart wijzigen: klik op de groene knoppen met een zwart kruis om in te zoomen, op de groene knop met een streepje om uit te zoomen of op de groene pijlen voor aangrenzende kaarten.


METAR-TAF: